createdAt,value
2019-05-23T00:02:00.523Z,10.50
2019-05-23T00:07:11.278Z,9.73
2019-05-23T00:12:32.172Z,7.87
2019-05-23T00:17:35.601Z,10.95
2019-05-23T00:22:41.064Z,10.45
2019-05-23T00:27:45.638Z,11.45
2019-05-23T00:32:54.428Z,10.70
2019-05-23T00:38:02.903Z,12.28
2019-05-23T00:43:09.405Z,12.68
2019-05-23T00:48:13.245Z,10.85
2019-05-23T00:53:20.915Z,12.33
2019-05-23T00:58:25.055Z,11.68
2019-05-23T01:03:29.182Z,10.15
2019-05-23T01:08:38.910Z,10.43
2019-05-23T01:13:41.840Z,12.78
2019-05-23T01:18:45.667Z,11.38
2019-05-23T01:23:52.350Z,14.07
2019-05-23T01:28:57.142Z,11.22
2019-05-23T01:34:04.693Z,14.65
2019-05-23T01:39:09.658Z,11.45
2019-05-23T01:44:11.649Z,15.08
2019-05-23T01:49:15.423Z,12.15
2019-05-23T01:54:18.773Z,13.08
2019-05-23T01:59:22.804Z,13.50
2019-05-23T02:04:28.449Z,12.75
2019-05-23T02:09:35.887Z,12.90
2019-05-23T02:14:38.194Z,14.23
2019-05-23T02:19:40.570Z,14.95
2019-05-23T02:24:43.486Z,14.55
2019-05-23T02:29:47.983Z,14.43
2019-05-23T02:34:51.320Z,13.78
2019-05-23T02:39:59.940Z,15.03
2019-05-23T02:45:04.407Z,16.52
2019-05-23T02:50:12.686Z,15.35
2019-05-23T02:55:23.489Z,18.92
2019-05-23T03:00:55.944Z,14.98
2019-05-23T03:06:06.875Z,16.75
2019-05-23T03:11:18.600Z,16.10
2019-05-23T03:16:29.473Z,17.60
2019-05-23T03:21:34.224Z,16.62
2019-05-23T03:27:18.053Z,19.85
2019-05-23T03:32:24.152Z,17.70
2019-05-23T03:37:27.950Z,20.08
2019-05-23T03:42:35.877Z,22.32
2019-05-23T03:47:41.018Z,24.30
2019-05-23T03:52:54.409Z,23.98
2019-05-23T03:57:59.552Z,23.42
2019-05-23T04:03:05.204Z,26.60
2019-05-23T04:08:09.619Z,25.12
2019-05-23T04:13:11.827Z,27.42
2019-05-23T04:18:16.102Z,26.07
2019-05-23T04:23:18.621Z,25.50
2019-05-23T04:28:22.527Z,26.30
2019-05-23T04:33:26.109Z,29.25
2019-05-23T04:38:29.451Z,29.60
2019-05-23T04:43:32.427Z,27.00
2019-05-23T04:48:34.642Z,29.77
2019-05-23T04:53:39.277Z,23.22
2019-05-23T04:58:44.623Z,24.82
2019-05-23T05:03:48.004Z,24.57
2019-05-23T05:08:54.051Z,25.82
2019-05-23T05:13:55.786Z,26.10
2019-05-23T05:19:00.432Z,25.17
2019-05-23T05:24:04.976Z,24.75
2019-05-23T05:29:07.216Z,25.08
2019-05-23T05:34:18.659Z,24.90
2019-05-23T05:39:25.015Z,28.38
2019-05-23T05:44:30.197Z,25.43
2019-05-23T05:49:35.696Z,23.95
2019-05-23T05:54:40.507Z,22.77
2019-05-23T05:59:44.367Z,19.62
2019-05-23T06:04:46.513Z,22.55
2019-05-23T06:09:53.346Z,23.50
2019-05-23T06:14:58.546Z,19.87
2019-05-23T06:20:00.716Z,23.07
2019-05-23T06:25:09.080Z,21.30
2019-05-23T06:30:17.285Z,23.83
2019-05-23T06:35:31.559Z,21.33
2019-05-23T06:40:38.824Z,21.82
2019-05-23T06:45:43.601Z,26.23
2019-05-23T06:51:05.267Z,19.87
2019-05-23T06:56:10.708Z,21.75
2019-05-23T07:01:12.368Z,16.87
2019-05-23T07:06:22.169Z,18.37
2019-05-23T07:11:30.256Z,17.07
2019-05-23T07:16:33.299Z,16.95
2019-05-23T07:21:38.556Z,15.32
2019-05-23T07:26:46.074Z,12.93
2019-05-23T07:31:48.686Z,11.80
2019-05-23T07:36:50.360Z,10.13
2019-05-23T07:41:53.351Z,13.65
2019-05-23T07:46:57.339Z,10.45
2019-05-23T07:52:00.620Z,18.32
2019-05-23T07:57:06.587Z,11.97
2019-05-23T08:02:25.771Z,15.23
2019-05-23T08:07:32.766Z,13.65
2019-05-23T08:12:35.261Z,15.63
2019-05-23T08:17:38.310Z,13.65
2019-05-23T08:22:39.950Z,15.63
2019-05-23T08:27:42.220Z,15.30
2019-05-23T08:32:44.847Z,12.85
2019-05-23T08:37:46.137Z,15.95
2019-05-23T08:42:47.553Z,14.70
2019-05-23T08:47:50.163Z,14.00
2019-05-23T08:52:53.969Z,13.68
2019-05-23T08:57:57.774Z,14.73
2019-05-23T09:03:00.357Z,13.95
2019-05-23T09:08:05.400Z,12.07
2019-05-23T09:13:07.107Z,13.95
2019-05-23T09:18:09.752Z,12.95
2019-05-23T09:23:14.779Z,13.45
2019-05-23T09:28:17.375Z,14.95
2019-05-23T09:33:19.353Z,13.50
2019-05-23T09:38:21.686Z,15.03
2019-05-23T09:43:24.800Z,13.10
2019-05-23T09:48:29.123Z,11.95
2019-05-23T09:53:31.045Z,11.63
2019-05-23T09:58:33.139Z,11.38
2019-05-23T10:03:34.680Z,14.68
2019-05-23T10:08:36.042Z,11.80
2019-05-23T10:13:39.479Z,12.80
2019-05-23T10:18:40.994Z,8.85
2019-05-23T10:23:42.335Z,8.25
2019-05-23T10:28:43.647Z,10.05
2019-05-23T10:33:44.999Z,5.55
2019-05-23T10:38:47.435Z,6.15
2019-05-23T10:43:48.968Z,5.90
2019-05-23T10:48:50.349Z,5.75
2019-05-23T10:53:52.620Z,5.72
2019-05-23T10:58:54.616Z,7.35
2019-05-23T11:03:56.363Z,7.33
2019-05-23T11:08:57.806Z,7.90
2019-05-23T11:13:59.767Z,8.45
2019-05-23T11:19:02.219Z,8.65
2019-05-23T11:24:05.185Z,7.35
2019-05-23T11:29:07.647Z,8.15
2019-05-23T11:34:09.998Z,4.92
2019-05-23T11:39:13.479Z,6.70
2019-05-23T11:44:14.965Z,5.67
2019-05-23T11:49:16.332Z,6.37
2019-05-23T11:54:18.119Z,8.58
2019-05-23T11:59:19.672Z,5.53
2019-05-23T12:04:21.908Z,6.05
2019-05-23T12:09:24.999Z,8.10
2019-05-23T12:14:26.298Z,6.28
2019-05-23T12:19:28.552Z,6.45
2019-05-23T12:24:34.427Z,8.23
2019-05-23T12:29:34.295Z,8.93
2019-05-23T12:34:35.799Z,7.70
2019-05-23T12:39:37.561Z,7.85
2019-05-23T12:44:38.839Z,9.15
2019-05-23T12:49:42.105Z,9.08
2019-05-23T12:54:43.433Z,5.70
2019-05-23T13:05:06.889Z,7.55
2019-05-23T13:10:26.984Z,7.47
2019-05-23T13:15:29.394Z,12.68
2019-05-23T13:20:32.213Z,9.80
2019-05-23T13:25:34.376Z,8.48
2019-05-23T13:30:35.788Z,7.35
2019-05-23T13:35:37.911Z,6.28
2019-05-23T13:40:39.240Z,5.60
2019-05-23T13:45:40.739Z,7.62
2019-05-23T13:50:42.250Z,9.13
2019-05-23T13:55:44.151Z,7.42
2019-05-23T14:00:45.762Z,8.90
2019-05-23T14:05:47.770Z,9.10
2019-05-23T14:10:49.530Z,7.03
2019-05-23T14:15:52.341Z,8.93
2019-05-23T14:20:54.114Z,8.33
2019-05-23T14:25:58.262Z,7.87
2019-05-23T14:31:01.576Z,6.47
2019-05-23T14:36:08.685Z,6.55
2019-05-23T14:41:11.640Z,4.70
2019-05-23T14:46:15.733Z,5.87
2019-05-23T14:51:19.190Z,3.30
2019-05-23T14:56:22.462Z,2.83
2019-05-23T15:01:28.126Z,6.05
2019-05-23T15:06:30.502Z,5.70
2019-05-23T15:11:34.620Z,11.80
2019-05-23T15:16:36.181Z,14.75
2019-05-23T15:21:39.438Z,17.12
2019-05-23T15:26:41.794Z,6.75
2019-05-23T15:31:59.147Z,6.10
2019-05-23T15:36:49.029Z,5.10
2019-05-23T15:41:50.509Z,3.90
2019-05-23T15:46:52.234Z,4.12
2019-05-23T15:51:55.731Z,6.40
2019-05-23T15:57:17.319Z,4.42
2019-05-23T16:02:23.473Z,4.30
2019-05-23T16:07:25.439Z,5.60
2019-05-23T16:12:47.346Z,4.87
2019-05-23T16:17:48.813Z,6.30
2019-05-23T16:22:57.625Z,4.05
2019-05-23T16:28:00.741Z,3.98
2019-05-23T16:33:02.306Z,5.03
2019-05-23T16:38:03.798Z,3.90
2019-05-23T16:43:06.049Z,3.33
2019-05-23T16:48:07.588Z,4.03
2019-05-23T16:53:11.091Z,6.78
2019-05-23T16:58:20.866Z,5.03
2019-05-23T17:03:36.183Z,5.08
2019-05-23T17:08:39.778Z,4.85
2019-05-23T17:13:43.044Z,3.85
2019-05-23T17:19:10.788Z,3.52
2019-05-23T17:24:23.406Z,3.92
2019-05-23T17:29:34.349Z,3.43
2019-05-23T17:34:35.823Z,2.92
2019-05-23T17:39:37.891Z,4.55
2019-05-23T17:44:40.309Z,4.97
2019-05-23T17:49:41.640Z,2.67
2019-05-23T17:54:43.074Z,4.80
2019-05-23T17:59:44.731Z,4.67
2019-05-23T18:04:46.619Z,5.10
2019-05-23T18:09:50.136Z,3.58
2019-05-23T18:14:52.423Z,4.30
2019-05-23T18:19:54.924Z,3.83
2019-05-23T18:24:59.809Z,6.47
2019-05-23T18:30:04.811Z,3.75
2019-05-23T18:35:10.700Z,4.37
2019-05-23T18:40:14.807Z,3.62
2019-05-23T18:45:18.429Z,4.87
2019-05-23T18:50:20.637Z,5.10
2019-05-23T18:55:26.369Z,2.87
2019-05-23T19:00:53.855Z,3.20
2019-05-23T19:05:55.151Z,4.08
2019-05-23T19:10:58.597Z,4.42
2019-05-23T19:16:00.217Z,3.45
2019-05-23T19:21:03.643Z,4.00
2019-05-23T19:26:05.437Z,4.55
2019-05-23T19:31:07.542Z,4.83
2019-05-23T19:36:12.072Z,4.58
2019-05-23T19:41:14.053Z,4.75
2019-05-23T19:46:15.291Z,4.60
2019-05-23T19:51:18.559Z,5.20
2019-05-23T19:56:20.991Z,7.53
2019-05-23T20:01:24.436Z,5.75
2019-05-23T20:06:26.180Z,7.20
2019-05-23T20:11:28.487Z,6.42
2019-05-23T20:16:30.420Z,5.53
2019-05-23T20:21:31.841Z,7.05
2019-05-23T20:26:36.946Z,5.85
2019-05-23T20:31:40.349Z,7.20
2019-05-23T20:36:42.310Z,6.97
2019-05-23T20:41:46.150Z,14.53
2019-05-23T20:46:49.518Z,11.75
2019-05-23T20:51:56.023Z,12.70
2019-05-23T20:56:58.071Z,8.48
2019-05-23T21:02:05.812Z,10.20
2019-05-23T21:07:10.309Z,6.65
2019-05-23T21:12:28.864Z,11.90
2019-05-23T21:17:18.458Z,8.30
2019-05-23T21:22:21.383Z,8.45
2019-05-23T21:27:24.651Z,5.37
2019-05-23T21:32:27.153Z,7.03
2019-05-23T21:37:28.463Z,8.00
2019-05-23T21:42:44.948Z,8.08
2019-05-23T21:47:34.334Z,8.50
2019-05-23T21:52:35.678Z,6.62
2019-05-23T21:57:36.945Z,5.65
2019-05-23T22:02:41.659Z,6.20
2019-05-23T22:07:43.038Z,7.62
2019-05-23T22:13:03.362Z,6.75
2019-05-23T22:17:51.935Z,6.97
2019-05-23T22:22:54.629Z,8.70
2019-05-23T22:27:56.526Z,9.35
2019-05-23T22:33:00.173Z,8.00
2019-05-23T22:38:04.983Z,8.10
2019-05-23T22:43:20.226Z,8.38
2019-05-23T22:48:11.764Z,7.83
2019-05-23T22:53:13.452Z,8.83
2019-05-23T22:58:15.261Z,8.88
2019-05-23T23:03:16.868Z,7.30
2019-05-23T23:08:21.510Z,7.40
2019-05-23T23:13:38.200Z,7.87
2019-05-23T23:18:28.841Z,6.65
2019-05-23T23:23:30.661Z,9.13
2019-05-23T23:28:32.561Z,9.48
2019-05-23T23:33:34.480Z,10.40
2019-05-23T23:38:36.072Z,9.88
2019-05-23T23:43:38.608Z,13.55
2019-05-23T23:48:58.489Z,12.00
2019-05-23T23:54:18.612Z,10.95
2019-05-23T23:59:20.091Z,11.12
